sensor_id;sensor_type;location;lat;lon;timestamp;pressure;altitude;pressure_sealevel;temperature;humidity
29907;BME280;16776;50.958;10.994;2023-05-22T00:02:26;98365.00;;;17.53;95.48
29907;BME280;16776;50.958;10.994;2023-05-22T00:04:54;98362.47;;;17.51;95.65
29907;BME280;16776;50.958;10.994;2023-05-22T00:07:22;98360.25;;;17.45;95.79
29907;BME280;16776;50.958;10.994;2023-05-22T00:09:51;98361.25;;;17.43;95.74
29907;BME280;16776;50.958;10.994;2023-05-22T00:12:18;98361.44;;;17.39;95.93
29907;BME280;16776;50.958;10.994;2023-05-22T00:14:45;98357.31;;;17.35;95.80
29907;BME280;16776;50.958;10.994;2023-05-22T00:17:12;98362.72;;;17.32;95.94
29907;BME280;16776;50.958;10.994;2023-05-22T00:19:39;98359.38;;;17.30;96.08
29907;BME280;16776;50.958;10.994;2023-05-22T00:22:08;98364.56;;;17.30;95.90
29907;BME280;16776;50.958;10.994;2023-05-22T00:24:35;98358.88;;;17.24;95.93
29907;BME280;16776;50.958;10.994;2023-05-22T00:27:04;98366.03;;;17.20;95.97
29907;BME280;16776;50.958;10.994;2023-05-22T00:29:31;98360.16;;;17.17;96.03
29907;BME280;16776;50.958;10.994;2023-05-22T00:31:57;98360.34;;;17.14;96.24
29907;BME280;16776;50.958;10.994;2023-05-22T00:34:24;98363.13;;;17.11;96.20
29907;BME280;16776;50.958;10.994;2023-05-22T00:36:50;98360.59;;;17.09;96.66
29907;BME280;16776;50.958;10.994;2023-05-22T00:39:18;98364.16;;;17.08;96.11
29907;BME280;16776;50.958;10.994;2023-05-22T00:41:45;98359.38;;;17.01;96.25
29907;BME280;16776;50.958;10.994;2023-05-22T00:44:12;98361.22;;;16.98;96.38
29907;BME280;16776;50.958;10.994;2023-05-22T00:46:38;98348.69;;;16.89;96.53
29907;BME280;16776;50.958;10.994;2023-05-22T00:49:05;98366.81;;;16.91;96.52
29907;BME280;16776;50.958;10.994;2023-05-22T00:51:32;98360.97;;;16.87;96.56
29907;BME280;16776;50.958;10.994;2023-05-22T00:53:59;98359.44;;;16.83;96.65
29907;BME280;16776;50.958;10.994;2023-05-22T00:56:27;98361.22;;;16.83;96.52
29907;BME280;16776;50.958;10.994;2023-05-22T00:58:54;98361.56;;;16.77;96.77
29907;BME280;16776;50.958;10.994;2023-05-22T01:01:20;98363.44;;;16.75;96.65
29907;BME280;16776;50.958;10.994;2023-05-22T01:03:51;98356.63;;;16.72;97.07
29907;BME280;16776;50.958;10.994;2023-05-22T01:06:18;98355.97;;;16.69;96.75
29907;BME280;16776;50.958;10.994;2023-05-22T01:08:45;98356.97;;;16.66;96.79
29907;BME280;16776;50.958;10.994;2023-05-22T01:11:15;98350.84;;;16.67;97.05
29907;BME280;16776;50.958;10.994;2023-05-22T01:13:52;98350.75;;;16.69;97.05
29907;BME280;16776;50.958;10.994;2023-05-22T01:16:25;98356.19;;;16.64;96.92
29907;BME280;16776;50.958;10.994;2023-05-22T01:18:59;98346.06;;;16.59;96.98
29907;BME280;16776;50.958;10.994;2023-05-22T01:21:35;98357.50;;;16.57;97.47
29907;BME280;16776;50.958;10.994;2023-05-22T01:27:36;98355.97;;;16.53;97.05
29907;BME280;16776;50.958;10.994;2023-05-22T01:30:16;98361.69;;;16.44;97.17
29907;BME280;16776;50.958;10.994;2023-05-22T01:32:48;98353.47;;;16.36;97.22
29907;BME280;16776;50.958;10.994;2023-05-22T01:35:17;98352.13;;;16.29;97.27
29907;BME280;16776;50.958;10.994;2023-05-22T01:37:44;98355.81;;;16.25;97.35
29907;BME280;16776;50.958;10.994;2023-05-22T01:40:12;98361.09;;;16.23;97.26
29907;BME280;16776;50.958;10.994;2023-05-22T01:42:39;98363.94;;;16.18;97.46
29907;BME280;16776;50.958;10.994;2023-05-22T01:45:08;98365.69;;;16.18;97.44
29907;BME280;16776;50.958;10.994;2023-05-22T01:47:35;98361.59;;;16.12;97.71
29907;BME280;16776;50.958;10.994;2023-05-22T01:50:04;98369.31;;;16.14;97.63
29907;BME280;16776;50.958;10.994;2023-05-22T01:52:36;98371.09;;;16.13;97.80
29907;BME280;16776;50.958;10.994;2023-05-22T01:55:08;98369.59;;;16.09;98.17
29907;BME280;16776;50.958;10.994;2023-05-22T01:57:43;98366.97;;;16.09;97.83
29907;BME280;16776;50.958;10.994;2023-05-22T02:00:16;98364.78;;;16.02;97.75
29907;BME280;16776;50.958;10.994;2023-05-22T02:02:47;98367.47;;;16.00;97.92
29907;BME280;16776;50.958;10.994;2023-05-22T02:05:16;98361.53;;;15.98;97.87
29907;BME280;16776;50.958;10.994;2023-05-22T02:07:44;98360.84;;;15.95;97.93
29907;BME280;16776;50.958;10.994;2023-05-22T02:10:14;98360.09;;;15.93;97.98
29907;BME280;16776;50.958;10.994;2023-05-22T02:12:42;98355.13;;;15.88;98.18
29907;BME280;16776;50.958;10.994;2023-05-22T02:15:09;98354.38;;;15.86;98.12
29907;BME280;16776;50.958;10.994;2023-05-22T02:17:36;98357.13;;;15.83;98.53
29907;BME280;16776;50.958;10.994;2023-05-22T02:20:06;98359.78;;;15.81;98.15
29907;BME280;16776;50.958;10.994;2023-05-22T02:22:40;98363.41;;;15.79;98.13
29907;BME280;16776;50.958;10.994;2023-05-22T02:25:08;98365.41;;;15.74;98.21
29907;BME280;16776;50.958;10.994;2023-05-22T02:27:38;98358.69;;;15.70;98.35
29907;BME280;16776;50.958;10.994;2023-05-22T02:30:06;98360.50;;;15.68;98.43
29907;BME280;16776;50.958;10.994;2023-05-22T02:32:33;98354.72;;;15.63;98.51
29907;BME280;16776;50.958;10.994;2023-05-22T02:35:00;98357.50;;;15.60;98.42
29907;BME280;16776;50.958;10.994;2023-05-22T02:37:27;98347.25;;;15.57;98.55
29907;BME280;16776;50.958;10.994;2023-05-22T02:39:55;98348.25;;;15.54;98.48
29907;BME280;16776;50.958;10.994;2023-05-22T02:42:21;98347.56;;;15.51;98.68
29907;BME280;16776;50.958;10.994;2023-05-22T02:44:48;98352.09;;;15.47;98.65
29907;BME280;16776;50.958;10.994;2023-05-22T02:47:15;98348.78;;;15.44;98.77
29907;BME280;16776;50.958;10.994;2023-05-22T02:49:41;98348.97;;;15.40;98.85
29907;BME280;16776;50.958;10.994;2023-05-22T02:52:08;98350.00;;;15.36;98.83
29907;BME280;16776;50.958;10.994;2023-05-22T02:54:35;98350.19;;;15.33;98.79
29907;BME280;16776;50.958;10.994;2023-05-22T02:57:03;98348.50;;;15.32;98.56
29907;BME280;16776;50.958;10.994;2023-05-22T02:59:29;98347.94;;;15.26;98.89
29907;BME280;16776;50.958;10.994;2023-05-22T03:01:57;98347.28;;;15.22;98.95
29907;BME280;16776;50.958;10.994;2023-05-22T03:04:23;98344.03;;;15.17;98.89
29907;BME280;16776;50.958;10.994;2023-05-22T03:06:50;98344.97;;;15.16;98.88
29907;BME280;16776;50.958;10.994;2023-05-22T03:09:17;98346.03;;;15.12;99.08
29907;BME280;16776;50.958;10.994;2023-05-22T03:11:44;98342.75;;;15.09;99.00
29907;BME280;16776;50.958;10.994;2023-05-22T03:14:12;98344.50;;;15.08;98.79
29907;BME280;16776;50.958;10.994;2023-05-22T03:16:39;98339.63;;;15.02;99.19
29907;BME280;16776;50.958;10.994;2023-05-22T03:19:09;98341.31;;;15.03;98.96
29907;BME280;16776;50.958;10.994;2023-05-22T03:21:36;98341.75;;;14.94;99.22
29907;BME280;16776;50.958;10.994;2023-05-22T03:24:03;98337.66;;;14.90;99.21
29907;BME280;16776;50.958;10.994;2023-05-22T03:26:30;98337.78;;;14.87;99.15
29907;BME280;16776;50.958;10.994;2023-05-22T03:28:56;98344.03;;;14.83;99.23
29907;BME280;16776;50.958;10.994;2023-05-22T03:31:27;98342.28;;;14.83;99.12
29907;BME280;16776;50.958;10.994;2023-05-22T03:33:55;98341.66;;;14.78;99.11
29907;BME280;16776;50.958;10.994;2023-05-22T03:36:22;98337.75;;;14.70;99.09
29907;BME280;16776;50.958;10.994;2023-05-22T03:38:49;98340.50;;;14.67;99.33
29907;BME280;16776;50.958;10.994;2023-05-22T03:41:16;98340.66;;;14.64;99.39
29907;BME280;16776;50.958;10.994;2023-05-22T03:43:44;98335.47;;;14.64;99.22
29907;BME280;16776;50.958;10.994;2023-05-22T03:46:11;98338.34;;;14.57;99.18
29907;BME280;16776;50.958;10.994;2023-05-22T03:48:39;98342.63;;;14.58;99.38
29907;BME280;16776;50.958;10.994;2023-05-22T03:51:05;98343.72;;;14.53;99.64
29907;BME280;16776;50.958;10.994;2023-05-22T03:53:34;98339.56;;;14.50;99.54
29907;BME280;16776;50.958;10.994;2023-05-22T03:56:01;98331.06;;;14.47;99.59
29907;BME280;16776;50.958;10.994;2023-05-22T03:58:29;98338.00;;;14.46;99.59
29907;BME280;16776;50.958;10.994;2023-05-22T04:00:55;98326.84;;;14.44;99.92
29907;BME280;16776;50.958;10.994;2023-05-22T04:03:23;98331.25;;;14.42;99.85
29907;BME280;16776;50.958;10.994;2023-05-22T04:05:53;98322.72;;;14.40;100.00
29907;BME280;16776;50.958;10.994;2023-05-22T04:08:21;98327.88;;;14.40;100.00
29907;BME280;16776;50.958;10.994;2023-05-22T04:10:52;98333.72;;;14.45;100.00
29907;BME280;16776;50.958;10.994;2023-05-22T04:13:19;98332.31;;;14.38;100.00
29907;BME280;16776;50.958;10.994;2023-05-22T04:15:45;98338.41;;;14.37;100.00
29907;BME280;16776;50.958;10.994;2023-05-22T04:18:14;98330.63;;;14.37;100.00
29907;BME280;16776;50.958;10.994;2023-05-22T04:20:40;98332.16;;;14.41;100.00
29907;BME280;16776;50.958;10.994;2023-05-22T04:23:09;98336.91;;;14.52;100.00
29907;BME280;16776;50.958;10.994;2023-05-22T04:25:37;98328.59;;;14.63;100.00
29907;BME280;16776;50.958;10.994;2023-05-22T04:28:04;98329.81;;;14.73;100.00
29907;BME280;16776;50.958;10.994;2023-05-22T04:30:30;98336.31;;;14.81;100.00
29907;BME280;16776;50.958;10.994;2023-05-22T04:32:58;98332.53;;;14.88;100.00
29907;BME280;16776;50.958;10.994;2023-05-22T04:35:25;98335.06;;;14.90;100.00
29907;BME280;16776;50.958;10.994;2023-05-22T04:37:53;98335.78;;;14.92;100.00
29907;BME280;16776;50.958;10.994;2023-05-22T04:40:21;98336.56;;;14.94;100.00
29907;BME280;16776;50.958;10.994;2023-05-22T04:42:48;98332.34;;;14.91;100.00
29907;BME280;16776;50.958;10.994;2023-05-22T04:45:18;98336.81;;;14.89;100.00
29907;BME280;16776;50.958;10.994;2023-05-22T04:47:45;98335.13;;;14.88;100.00
29907;BME280;16776;50.958;10.994;2023-05-22T04:50:12;98330.91;;;14.86;100.00
29907;BME280;16776;50.958;10.994;2023-05-22T04:52:40;98333.50;;;14.86;100.00
29907;BME280;16776;50.958;10.994;2023-05-22T04:55:07;98326.63;;;14.85;100.00
29907;BME280;16776;50.958;10.994;2023-05-22T04:57:37;98340.38;;;14.87;100.00
29907;BME280;16776;50.958;10.994;2023-05-22T05:00:07;98341.38;;;14.84;100.00
29907;BME280;16776;50.958;10.994;2023-05-22T05:02:35;98337.22;;;14.80;100.00
29907;BME280;16776;50.958;10.994;2023-05-22T05:05:01;98339.16;;;14.77;100.00
29907;BME280;16776;50.958;10.994;2023-05-22T05:07:28;98335.84;;;14.73;100.00
29907;BME280;16776;50.958;10.994;2023-05-22T05:09:54;98334.16;;;14.72;100.00
29907;BME280;16776;50.958;10.994;2023-05-22T05:12:24;98333.50;;;14.69;100.00
29907;BME280;16776;50.958;10.994;2023-05-22T05:14:52;98339.44;;;14.71;100.00
29907;BME280;16776;50.958;10.994;2023-05-22T05:17:19;98339.59;;;14.68;100.00
29907;BME280;16776;50.958;10.994;2023-05-22T05:19:46;98340.41;;;14.68;100.00
29907;BME280;16776;50.958;10.994;2023-05-22T05:22:13;98332.56;;;14.70;100.00
29907;BME280;16776;50.958;10.994;2023-05-22T05:24:40;98342.66;;;14.76;100.00
29907;BME280;16776;50.958;10.994;2023-05-22T05:27:06;98330.31;;;14.81;100.00
29907;BME280;16776;50.958;10.994;2023-05-22T05:29:34;98335.78;;;14.92;100.00
29907;BME280;16776;50.958;10.994;2023-05-22T05:32:03;98339.63;;;15.02;100.00
29907;BME280;16776;50.958;10.994;2023-05-22T05:34:30;98334.88;;;15.10;100.00
29907;BME280;16776;50.958;10.994;2023-05-22T05:36:56;98340.41;;;15.21;100.00
29907;BME280;16776;50.958;10.994;2023-05-22T05:39:23;98339.81;;;15.33;100.00
29907;BME280;16776;50.958;10.994;2023-05-22T05:41:50;98339.13;;;15.47;100.00
29907;BME280;16776;50.958;10.994;2023-05-22T05:44:16;98337.56;;;15.60;100.00
29907;BME280;16776;50.958;10.994;2023-05-22T05:46:43;98340.25;;;15.74;100.00
29907;BME280;16776;50.958;10.994;2023-05-22T05:49:11;98338.47;;;15.92;100.00
29907;BME280;16776;50.958;10.994;2023-05-22T05:51:40;98341.34;;;16.03;100.00
29907;BME280;16776;50.958;10.994;2023-05-22T05:54:06;98341.47;;;16.17;100.00
29907;BME280;16776;50.958;10.994;2023-05-22T05:56:33;98330.22;;;16.33;100.00
29907;BME280;16776;50.958;10.994;2023-05-22T05:59:00;98337.19;;;16.48;100.00
29907;BME280;16776;50.958;10.994;2023-05-22T06:01:26;98339.88;;;16.62;100.00
29907;BME280;16776;50.958;10.994;2023-05-22T06:03:53;98345.13;;;16.76;100.00
29907;BME280;16776;50.958;10.994;2023-05-22T06:06:21;98341.56;;;16.93;100.00
29907;BME280;16776;50.958;10.994;2023-05-22T06:08:52;98337.28;;;17.08;100.00
29907;BME280;16776;50.958;10.994;2023-05-22T06:11:18;98340.09;;;17.19;100.00
29907;BME280;16776;50.958;10.994;2023-05-22T06:13:46;98345.22;;;17.34;100.00
29907;BME280;16776;50.958;10.994;2023-05-22T06:16:14;98341.56;;;17.53;100.00
29907;BME280;16776;50.958;10.994;2023-05-22T06:18:40;98336.69;;;17.76;100.00
29907;BME280;16776;50.958;10.994;2023-05-22T06:21:07;98334.34;;;18.00;100.00
29907;BME280;16776;50.958;10.994;2023-05-22T06:23:35;98337.84;;;18.28;100.00
29907;BME280;16776;50.958;10.994;2023-05-22T06:26:01;98333.81;;;18.50;100.00
29907;BME280;16776;50.958;10.994;2023-05-22T06:28:29;98332.25;;;18.75;100.00
29907;BME280;16776;50.958;10.994;2023-05-22T06:30:57;98333.97;;;19.01;100.00
29907;BME280;16776;50.958;10.994;2023-05-22T06:33:24;98341.53;;;19.18;100.00
29907;BME280;16776;50.958;10.994;2023-05-22T06:35:50;98320.56;;;19.32;100.00
29907;BME280;16776;50.958;10.994;2023-05-22T06:38:17;98328.66;;;19.55;100.00
29907;BME280;16776;50.958;10.994;2023-05-22T06:40:45;98334.28;;;19.74;100.00
29907;BME280;16776;50.958;10.994;2023-05-22T06:43:13;98340.44;;;19.86;100.00
29907;BME280;16776;50.958;10.994;2023-05-22T06:45:43;98333.13;;;20.03;100.00
29907;BME280;16776;50.958;10.994;2023-05-22T06:48:10;98335.31;;;20.09;100.00
29907;BME280;16776;50.958;10.994;2023-05-22T06:50:37;98333.09;;;20.16;100.00
29907;BME280;16776;50.958;10.994;2023-05-22T06:53:03;98323.03;;;20.23;100.00
29907;BME280;16776;50.958;10.994;2023-05-22T06:55:30;98334.03;;;20.28;100.00
29907;BME280;16776;50.958;10.994;2023-05-22T06:57:58;98327.41;;;20.35;100.00
29907;BME280;16776;50.958;10.994;2023-05-22T07:00:25;98325.50;;;20.37;100.00
29907;BME280;16776;50.958;10.994;2023-05-22T07:02:51;98329.59;;;20.41;100.00
29907;BME280;16776;50.958;10.994;2023-05-22T07:05:18;98332.72;;;20.46;100.00
29907;BME280;16776;50.958;10.994;2023-05-22T07:07:44;98335.72;;;20.52;100.00
29907;BME280;16776;50.958;10.994;2023-05-22T07:10:12;98337.94;;;20.59;100.00
29907;BME280;16776;50.958;10.994;2023-05-22T07:12:39;98331.16;;;20.67;100.00
29907;BME280;16776;50.958;10.994;2023-05-22T07:15:08;98335.66;;;20.78;100.00
29907;BME280;16776;50.958;10.994;2023-05-22T07:17:41;98330.69;;;20.86;100.00
29907;BME280;16776;50.958;10.994;2023-05-22T07:20:08;98333.56;;;20.94;100.00
29907;BME280;16776;50.958;10.994;2023-05-22T07:22:37;98335.16;;;21.08;99.85
29907;BME280;16776;50.958;10.994;2023-05-22T07:25:07;98328.91;;;21.21;100.00
29907;BME280;16776;50.958;10.994;2023-05-22T07:27:37;98327.78;;;21.37;100.00
29907;BME280;16776;50.958;10.994;2023-05-22T07:30:11;98330.91;;;21.53;99.91
29907;BME280;16776;50.958;10.994;2023-05-22T07:32:38;98333.41;;;21.65;99.87
29907;BME280;16776;50.958;10.994;2023-05-22T07:35:08;98331.28;;;21.82;100.00
29907;BME280;16776;50.958;10.994;2023-05-22T07:37:38;98330.94;;;21.97;100.00
29907;BME280;16776;50.958;10.994;2023-05-22T07:40:06;98326.41;;;22.10;100.00
29907;BME280;16776;50.958;10.994;2023-05-22T07:42:36;98332.38;;;22.24;99.75
29907;BME280;16776;50.958;10.994;2023-05-22T07:45:08;98329.22;;;22.41;100.00
29907;BME280;16776;50.958;10.994;2023-05-22T07:47:35;98336.47;;;22.48;100.00
29907;BME280;16776;50.958;10.994;2023-05-22T07:50:01;98329.44;;;22.60;99.81
29907;BME280;16776;50.958;10.994;2023-05-22T07:52:29;98331.22;;;22.71;99.26
29907;BME280;16776;50.958;10.994;2023-05-22T07:54:59;98327.13;;;22.78;99.13
29907;BME280;16776;50.958;10.994;2023-05-22T07:57:25;98335.91;;;22.88;98.92
29907;BME280;16776;50.958;10.994;2023-05-22T07:59:53;98328.25;;;22.96;98.99
29907;BME280;16776;50.958;10.994;2023-05-22T08:02:22;98340.38;;;23.08;98.85
29907;BME280;16776;50.958;10.994;2023-05-22T08:04:48;98336.44;;;23.14;98.16
29907;BME280;16776;50.958;10.994;2023-05-22T08:07:18;98331.50;;;23.20;98.41
29907;BME280;16776;50.958;10.994;2023-05-22T08:09:44;98336.97;;;23.28;98.51
29907;BME280;16776;50.958;10.994;2023-05-22T08:12:13;98334.25;;;23.40;97.89
29907;BME280;16776;50.958;10.994;2023-05-22T08:14:43;98336.25;;;23.47;97.89
29907;BME280;16776;50.958;10.994;2023-05-22T08:17:09;98329.88;;;23.50;97.48
29907;BME280;16776;50.958;10.994;2023-05-22T08:19:37;98329.81;;;23.61;97.70
29907;BME280;16776;50.958;10.994;2023-05-22T08:22:07;98326.69;;;23.67;97.80
29907;BME280;16776;50.958;10.994;2023-05-22T08:24:35;98324.22;;;23.75;97.84
29907;BME280;16776;50.958;10.994;2023-05-22T08:27:03;98321.78;;;23.83;97.78
29907;BME280;16776;50.958;10.994;2023-05-22T08:29:32;98320.84;;;23.94;97.32
29907;BME280;16776;50.958;10.994;2023-05-22T08:32:01;98318.53;;;24.00;97.19
29907;BME280;16776;50.958;10.994;2023-05-22T08:34:27;98312.19;;;24.03;97.63
29907;BME280;16776;50.958;10.994;2023-05-22T08:36:55;98321.50;;;24.17;98.06
29907;BME280;16776;50.958;10.994;2023-05-22T08:39:23;98317.63;;;24.21;97.35
29907;BME280;16776;50.958;10.994;2023-05-22T08:41:50;98314.19;;;24.30;97.55
29907;BME280;16776;50.958;10.994;2023-05-22T08:44:17;98312.72;;;24.37;96.66
29907;BME280;16776;50.958;10.994;2023-05-22T08:46:44;98314.94;;;24.41;96.87
29907;BME280;16776;50.958;10.994;2023-05-22T08:49:11;98304.81;;;24.37;96.53
29907;BME280;16776;50.958;10.994;2023-05-22T08:51:40;98303.56;;;24.41;96.49
29907;BME280;16776;50.958;10.994;2023-05-22T08:54:11;98303.03;;;24.47;96.62
29907;BME280;16776;50.958;10.994;2023-05-22T08:56:41;98303.44;;;24.42;96.38
29907;BME280;16776;50.958;10.994;2023-05-22T08:59:10;98300.13;;;24.50;96.55
29907;BME280;16776;50.958;10.994;2023-05-22T09:01:37;98292.50;;;24.47;96.40
29907;BME280;16776;50.958;10.994;2023-05-22T09:04:04;98298.19;;;24.52;96.27
29907;BME280;16776;50.958;10.994;2023-05-22T09:06:30;98292.66;;;24.55;96.75
29907;BME280;16776;50.958;10.994;2023-05-22T09:08:58;98290.44;;;24.60;96.60
29907;BME280;16776;50.958;10.994;2023-05-22T09:11:32;98289.31;;;24.72;96.24
29907;BME280;16776;50.958;10.994;2023-05-22T09:14:05;98283.38;;;24.80;96.64
29907;BME280;16776;50.958;10.994;2023-05-22T09:16:42;98290.59;;;24.87;95.92
29907;BME280;16776;50.958;10.994;2023-05-22T09:19:14;98284.06;;;24.82;95.59
29907;BME280;16776;50.958;10.994;2023-05-22T09:21:40;98281.00;;;24.86;95.90
29907;BME280;16776;50.958;10.994;2023-05-22T09:24:08;98283.13;;;24.93;96.17
29907;BME280;16776;50.958;10.994;2023-05-22T09:26:37;98287.56;;;25.02;96.46
29907;BME280;16776;50.958;10.994;2023-05-22T09:29:07;98283.78;;;25.04;95.99
29907;BME280;16776;50.958;10.994;2023-05-22T09:31:39;98285.16;;;25.18;95.51
29907;BME280;16776;50.958;10.994;2023-05-22T09:34:10;98280.84;;;25.17;95.79
29907;BME280;16776;50.958;10.994;2023-05-22T09:36:41;98275.41;;;25.28;95.73
29907;BME280;16776;50.958;10.994;2023-05-22T09:39:09;98279.97;;;25.36;96.03
29907;BME280;16776;50.958;10.994;2023-05-22T09:41:38;98283.59;;;25.44;95.51
29907;BME280;16776;50.958;10.994;2023-05-22T09:44:11;98283.72;;;25.52;95.04
29907;BME280;16776;50.958;10.994;2023-05-22T09:46:39;98272.22;;;25.53;94.74
29907;BME280;16776;50.958;10.994;2023-05-22T09:49:07;98279.25;;;25.62;94.94
29907;BME280;16776;50.958;10.994;2023-05-22T09:51:35;98268.81;;;25.71;94.50
29907;BME280;16776;50.958;10.994;2023-05-22T09:54:06;98269.91;;;25.78;94.23
29907;BME280;16776;50.958;10.994;2023-05-22T09:56:35;98262.38;;;25.83;93.88
29907;BME280;16776;50.958;10.994;2023-05-22T09:59:04;98268.03;;;25.88;92.60
29907;BME280;16776;50.958;10.994;2023-05-22T10:01:35;98262.47;;;25.91;93.42
29907;BME280;16776;50.958;10.994;2023-05-22T10:04:04;98265.00;;;25.83;91.55
29907;BME280;16776;50.958;10.994;2023-05-22T10:06:33;98259.16;;;25.79;92.03
29907;BME280;16776;50.958;10.994;2023-05-22T10:09:07;98251.69;;;25.84;92.38
29907;BME280;16776;50.958;10.994;2023-05-22T10:11:36;98256.84;;;25.76;92.41
29907;BME280;16776;50.958;10.994;2023-05-22T10:14:05;98250.97;;;25.82;93.12
29907;BME280;16776;50.958;10.994;2023-05-22T10:16:33;98240.94;;;25.86;92.97
29907;BME280;16776;50.958;10.994;2023-05-22T10:19:02;98242.19;;;25.91;91.89
29907;BME280;16776;50.958;10.994;2023-05-22T10:21:30;98238.56;;;25.92;93.08
29907;BME280;16776;50.958;10.994;2023-05-22T10:24:05;98236.47;;;25.96;91.38
29907;BME280;16776;50.958;10.994;2023-05-22T10:26:32;98234.66;;;25.96;91.09
29907;BME280;16776;50.958;10.994;2023-05-22T10:29:03;98243.94;;;26.00;91.20
29907;BME280;16776;50.958;10.994;2023-05-22T10:31:38;98229.75;;;26.01;91.26
29907;BME280;16776;50.958;10.994;2023-05-22T10:34:10;98230.22;;;25.97;90.51
29907;BME280;16776;50.958;10.994;2023-05-22T10:36:47;98232.53;;;26.00;90.16
29907;BME280;16776;50.958;10.994;2023-05-22T10:39:29;98223.97;;;25.98;89.87
29907;BME280;16776;50.958;10.994;2023-05-22T10:41:58;98218.28;;;25.93;91.67
29907;BME280;16776;50.958;10.994;2023-05-22T10:44:30;98209.50;;;25.75;90.08
29907;BME280;16776;50.958;10.994;2023-05-22T10:47:07;98213.91;;;25.84;90.45
29907;BME280;16776;50.958;10.994;2023-05-22T10:49:35;98210.34;;;25.75;89.90
29907;BME280;16776;50.958;10.994;2023-05-22T10:52:07;98209.59;;;25.83;90.07
29907;BME280;16776;50.958;10.994;2023-05-22T10:54:41;98205.31;;;25.82;90.53
29907;BME280;16776;50.958;10.994;2023-05-22T10:57:15;98205.53;;;25.88;90.19
29907;BME280;16776;50.958;10.994;2023-05-22T10:59:46;98201.47;;;25.94;89.57
29907;BME280;16776;50.958;10.994;2023-05-22T11:02:21;98202.53;;;26.01;90.70
29907;BME280;16776;50.958;10.994;2023-05-22T11:04:53;98192.81;;;26.01;89.02
29907;BME280;16776;50.958;10.994;2023-05-22T11:07:19;98201.00;;;26.08;88.60
29907;BME280;16776;50.958;10.994;2023-05-22T11:09:46;98198.88;;;26.12;89.14
29907;BME280;16776;50.958;10.994;2023-05-22T11:12:18;98192.56;;;26.22;89.41
29907;BME280;16776;50.958;10.994;2023-05-22T11:14:52;98197.53;;;26.25;89.51
29907;BME280;16776;50.958;10.994;2023-05-22T11:17:25;98184.66;;;26.22;88.43
29907;BME280;16776;50.958;10.994;2023-05-22T11:19:58;98193.22;;;26.24;88.28
29907;BME280;16776;50.958;10.994;2023-05-22T11:22:35;98191.97;;;26.28;88.25
29907;BME280;16776;50.958;10.994;2023-05-22T11:25:07;98196.28;;;26.29;88.67
29907;BME280;16776;50.958;10.994;2023-05-22T11:27:36;98187.53;;;26.29;88.79
29907;BME280;16776;50.958;10.994;2023-05-22T11:30:05;98185.41;;;26.32;88.29
29907;BME280;16776;50.958;10.994;2023-05-22T11:32:35;98193.75;;;26.45;89.12
29907;BME280;16776;50.958;10.994;2023-05-22T11:35:03;98191.81;;;26.48;88.58
29907;BME280;16776;50.958;10.994;2023-05-22T11:37:31;98186.75;;;26.54;88.32
29907;BME280;16776;50.958;10.994;2023-05-22T11:40:03;98183.06;;;26.65;89.10
29907;BME280;16776;50.958;10.994;2023-05-22T11:42:30;98175.00;;;26.66;88.92
29907;BME280;16776;50.958;10.994;2023-05-22T11:44:59;98171.88;;;26.71;88.07
29907;BME280;16776;50.958;10.994;2023-05-22T11:47:27;98172.72;;;26.71;88.14
29907;BME280;16776;50.958;10.994;2023-05-22T11:49:55;98177.00;;;26.72;88.36
29907;BME280;16776;50.958;10.994;2023-05-22T11:52:23;98172.56;;;26.73;88.55
29907;BME280;16776;50.958;10.994;2023-05-22T11:54:52;98174.44;;;26.80;88.43
29907;BME280;16776;50.958;10.994;2023-05-22T11:57:18;98173.25;;;26.75;87.83
29907;BME280;16776;50.958;10.994;2023-05-22T11:59:45;98170.44;;;26.76;88.03
29907;BME280;16776;50.958;10.994;2023-05-22T12:02:13;98176.25;;;26.80;88.15
29907;BME280;16776;50.958;10.994;2023-05-22T12:04:39;98162.22;;;26.79;88.07
29907;BME280;16776;50.958;10.994;2023-05-22T12:07:07;98170.50;;;26.84;88.46
29907;BME280;16776;50.958;10.994;2023-05-22T12:09:34;98168.69;;;26.85;88.11
29907;BME280;16776;50.958;10.994;2023-05-22T12:12:04;98158.81;;;26.95;88.11
29907;BME280;16776;50.958;10.994;2023-05-22T12:14:31;98160.63;;;26.95;87.81
29907;BME280;16776;50.958;10.994;2023-05-22T12:16:58;98166.31;;;27.00;87.10
29907;BME280;16776;50.958;10.994;2023-05-22T12:19:25;98157.38;;;27.01;87.49
29907;BME280;16776;50.958;10.994;2023-05-22T12:21:53;98166.31;;;27.00;87.42
29907;BME280;16776;50.958;10.994;2023-05-22T12:24:21;98160.19;;;26.99;87.78
29907;BME280;16776;50.958;10.994;2023-05-22T12:26:48;98157.19;;;26.94;87.39
29907;BME280;16776;50.958;10.994;2023-05-22T12:29:15;98125.84;;;26.73;87.33
29907;BME280;16776;50.958;10.994;2023-05-22T12:31:42;98139.13;;;26.90;86.98
29907;BME280;16776;50.958;10.994;2023-05-22T12:34:13;98142.25;;;26.85;87.55
29907;BME280;16776;50.958;10.994;2023-05-22T12:36:42;98148.84;;;26.81;87.58
29907;BME280;16776;50.958;10.994;2023-05-22T12:39:10;98157.06;;;26.78;87.26
29907;BME280;16776;50.958;10.994;2023-05-22T12:41:38;98145.66;;;26.77;87.14
29907;BME280;16776;50.958;10.994;2023-05-22T12:44:05;98140.19;;;26.71;86.58
29907;BME280;16776;50.958;10.994;2023-05-22T12:46:32;98142.97;;;26.69;87.38
29907;BME280;16776;50.958;10.994;2023-05-22T12:48:59;98142.13;;;26.69;86.76
29907;BME280;16776;50.958;10.994;2023-05-22T12:51:27;98141.34;;;26.68;86.52
29907;BME280;16776;50.958;10.994;2023-05-22T12:53:54;98143.16;;;26.68;86.65
29907;BME280;16776;50.958;10.994;2023-05-22T12:56:21;98140.50;;;26.68;86.82
29907;BME280;16776;50.958;10.994;2023-05-22T12:58:49;98124.94;;;26.65;87.21